< < Back
Terminal Aerodrome Forecast


Current Version              Previous Versions:   1  2  3  4  5  6  7  8  9  

Terminal Aerodrome Forecast

021
FTUS42 KILM 201100
TAFFLO
TAF
KFLO 201136Z 2012/2112 05005KT 6SM -RA SCT040 OVC070
     FM201600 05006KT 5SM -RA BKN025 OVC040
     FM201800 04007KT 4SM -RA BR BKN012 OVC020
     FM202100 04005KT 5SM BR BKN012 OVC020
     FM210800 04005KT 6SM BR BKN025 OVC070=



Latest METAR

168
SAUS70 KWBC 210600 RRO
MTRFLO
METAR KFLO 210553Z AUTO 04004KT 4SM BR BKN065 03/02 A3025 RMK AO2 SLP243
T00330022 10067 20028 58003


USA.gov is the U.S. government's official web portal to all federal, state and local government web resources and services.